createdAt,value
2023-03-04T00:04:31.557Z,83.23
2023-03-04T00:09:54.624Z,82.74
2023-03-04T00:15:19.407Z,82.15
2023-03-04T00:20:43.283Z,81.48
2023-03-04T00:26:08.270Z,80.75
2023-03-04T00:31:33.346Z,79.93
2023-03-04T00:36:58.117Z,79.39
2023-03-04T00:42:20.355Z,79.36
2023-03-04T00:47:42.624Z,79.70
2023-03-04T00:53:04.807Z,79.96
2023-03-04T00:58:29.048Z,80.02
2023-03-04T01:03:52.435Z,79.94
2023-03-04T01:09:16.638Z,79.87
2023-03-04T01:14:39.139Z,79.84
2023-03-04T01:20:03.903Z,79.80
2023-03-04T01:25:27.177Z,79.59
2023-03-04T01:30:50.244Z,79.52
2023-03-04T01:36:15.281Z,79.39
2023-03-04T01:41:39.477Z,79.20
2023-03-04T01:47:05.859Z,79.10
2023-03-04T01:52:31.061Z,79.11
2023-03-04T02:03:37.684Z,79.88
2023-03-04T02:09:00.102Z,79.35
2023-03-04T02:14:24.577Z,79.45
2023-03-04T02:20:21.705Z,79.53
2023-03-04T02:26:16.200Z,79.68
2023-03-04T02:32:00.280Z,79.82
2023-03-04T02:37:26.230Z,79.92
2023-03-04T02:42:59.163Z,80.67
2023-03-04T02:48:24.583Z,79.94
2023-03-04T02:53:46.825Z,79.97
2023-03-04T02:59:09.634Z,79.97
2023-03-04T03:04:33.114Z,80.08
2023-03-04T03:09:55.487Z,80.22
2023-03-04T03:15:18.679Z,80.32
2023-03-04T03:20:41.341Z,80.27
2023-03-04T03:26:04.124Z,80.21
2023-03-04T03:31:26.679Z,80.24
2023-03-04T03:36:48.941Z,80.29
2023-03-04T03:42:11.119Z,80.42
2023-03-04T03:47:35.653Z,80.51
2023-03-04T03:52:58.043Z,80.61
2023-03-04T03:58:20.231Z,80.60
2023-03-04T04:03:42.962Z,80.68
2023-03-04T04:09:05.436Z,80.71
2023-03-04T04:14:29.305Z,80.75
2023-03-04T04:19:51.500Z,80.72
2023-03-04T04:25:14.653Z,80.77
2023-03-04T04:30:37.365Z,80.77
2023-03-04T04:36:01.520Z,80.77
2023-03-04T04:41:30.395Z,80.77
2023-03-04T04:46:53.224Z,80.79
2023-03-04T04:52:15.546Z,80.87
2023-03-04T04:57:38.115Z,80.91
2023-03-04T05:03:00.396Z,80.96
2023-03-04T05:08:23.179Z,81.04
2023-03-04T05:13:46.225Z,81.14
2023-03-04T05:19:08.716Z,81.34
2023-03-04T05:24:30.949Z,81.60
2023-03-04T05:29:54.335Z,81.95
2023-03-04T05:35:17.497Z,82.24
2023-03-04T05:40:42.174Z,82.46
2023-03-04T05:46:04.561Z,82.64
2023-03-04T05:51:27.270Z,82.82
2023-03-04T05:56:49.448Z,82.97
2023-03-04T06:02:11.717Z,83.10
2023-03-04T06:07:34.034Z,83.30
2023-03-04T06:12:56.881Z,83.40
2023-03-04T06:18:19.589Z,83.52
2023-03-04T06:23:42.344Z,83.59
2023-03-04T06:29:04.537Z,83.58
2023-03-04T06:34:30.151Z,83.62
2023-03-04T06:39:52.791Z,83.68
2023-03-04T06:45:16.803Z,83.68
2023-03-04T06:50:39.078Z,83.68
2023-03-04T06:56:01.965Z,83.70
2023-03-04T07:01:33.739Z,83.82
2023-03-04T07:06:56.491Z,84.14
2023-03-04T07:12:19.544Z,84.73
2023-03-04T07:17:41.737Z,85.35
2023-03-04T07:23:04.045Z,85.94
2023-03-04T07:28:26.255Z,86.39
2023-03-04T07:33:48.751Z,86.88
2023-03-04T07:39:11.634Z,87.51
2023-03-04T07:44:33.806Z,88.35
2023-03-04T07:49:56.576Z,89.25
2023-03-04T07:55:20.122Z,90.19
2023-03-04T08:00:42.445Z,91.04
2023-03-04T08:06:04.625Z,91.74
2023-03-04T08:11:29.686Z,92.20
2023-03-04T08:16:53.064Z,92.51
2023-03-04T08:22:15.527Z,92.85
2023-03-04T08:27:37.924Z,93.41
2023-03-04T08:33:00.802Z,94.26
2023-03-04T08:38:23.336Z,95.36
2023-03-04T08:43:46.456Z,96.63
2023-03-04T08:49:09.265Z,98.24
2023-03-04T08:54:31.587Z,99.90
2023-03-04T08:59:53.877Z,100.00
2023-03-04T09:05:16.241Z,100.00
2023-03-04T09:10:39.401Z,100.00
2023-03-04T09:16:06.299Z,100.00
2023-03-04T09:21:29.816Z,100.00
2023-03-04T09:26:52.132Z,100.00
2023-03-04T09:32:16.023Z,100.00
2023-03-04T09:37:41.190Z,100.00
2023-03-04T09:43:09.187Z,100.00
2023-03-04T09:48:39.210Z,100.00
2023-03-04T09:54:24.652Z,100.00
2023-03-04T09:59:57.260Z,100.00
2023-03-04T10:05:26.625Z,100.00
2023-03-04T10:10:55.126Z,100.00
2023-03-04T10:16:21.731Z,100.00
2023-03-04T10:21:57.335Z,100.00
2023-03-04T10:27:25.246Z,98.83
2023-03-04T10:32:49.149Z,94.29
2023-03-04T10:38:13.270Z,89.84
2023-03-04T10:43:37.004Z,86.93
2023-03-04T10:49:00.429Z,84.78
2023-03-04T10:54:39.908Z,81.45
2023-03-04T11:00:34.249Z,76.47
2023-03-04T11:05:56.585Z,69.06
2023-03-04T11:11:28.062Z,64.27
2023-03-04T11:16:53.236Z,57.86
2023-03-04T11:22:19.404Z,53.85
2023-03-04T11:27:54.301Z,50.06
2023-03-04T11:33:24.576Z,49.00
2023-03-04T11:38:57.317Z,47.74
2023-03-04T11:44:20.531Z,46.91
2023-03-04T11:50:20.669Z,46.73
2023-03-04T11:56:02.659Z,46.33
2023-03-04T12:01:41.643Z,46.59
2023-03-04T12:07:17.646Z,46.35
2023-03-04T12:13:07.982Z,46.17
2023-03-04T12:18:39.646Z,43.11
2023-03-04T12:24:20.154Z,43.10
2023-03-04T12:30:07.991Z,42.84
2023-03-04T12:42:03.466Z,39.25
2023-03-04T12:48:17.210Z,38.55
2023-03-04T12:54:06.271Z,36.45
2023-03-04T12:59:32.815Z,32.25
2023-03-04T13:05:05.838Z,30.43
2023-03-04T13:10:32.793Z,31.09
2023-03-04T13:15:58.532Z,30.61
2023-03-04T13:21:32.040Z,30.83
2023-03-04T13:26:55.640Z,30.00
2023-03-04T13:32:44.772Z,29.67
2023-03-04T13:38:15.346Z,30.46
2023-03-04T13:43:48.370Z,30.67
2023-03-04T13:49:14.405Z,30.98
2023-03-04T13:54:50.426Z,31.08
2023-03-04T14:00:19.747Z,31.70
2023-03-04T14:05:42.044Z,32.17
2023-03-04T14:11:10.744Z,32.45
2023-03-04T14:16:36.445Z,33.88
2023-03-04T14:22:00.444Z,34.08
2023-03-04T14:27:27.862Z,34.61
2023-03-04T14:32:52.066Z,35.90
2023-03-04T14:38:25.026Z,36.33
2023-03-04T14:43:50.871Z,36.73
2023-03-04T14:49:16.761Z,36.69
2023-03-04T14:54:50.842Z,36.32
2023-03-04T15:00:34.425Z,36.19
2023-03-04T15:05:58.806Z,33.13
2023-03-04T15:11:28.364Z,31.36
2023-03-04T15:17:08.552Z,30.69
2023-03-04T15:22:30.889Z,32.40
2023-03-04T15:27:54.935Z,34.51
2023-03-04T15:33:21.151Z,35.99
2023-03-04T15:38:43.469Z,34.57
2023-03-04T15:44:06.860Z,34.46
2023-03-04T15:49:30.268Z,34.62
2023-03-04T15:54:53.027Z,33.46
2023-03-04T16:00:17.148Z,32.79
2023-03-04T16:05:42.879Z,32.20
2023-03-04T16:11:05.656Z,33.18
2023-03-04T16:16:31.812Z,33.77
2023-03-04T16:21:54.526Z,34.76
2023-03-04T16:27:20.583Z,35.64
2023-03-04T16:32:43.142Z,37.06
2023-03-04T16:38:07.131Z,38.92
2023-03-04T16:43:30.997Z,41.49
2023-03-04T16:49:52.127Z,42.46
2023-03-04T16:55:16.201Z,42.53
2023-03-04T17:00:40.362Z,42.34
2023-03-04T17:06:02.569Z,42.17
2023-03-04T17:11:28.247Z,42.37
2023-03-04T17:16:51.678Z,41.88
2023-03-04T17:22:16.781Z,41.11
2023-03-04T17:27:39.222Z,40.39
2023-03-04T17:33:01.787Z,40.43
2023-03-04T17:38:25.602Z,40.65
2023-03-04T17:43:52.323Z,40.46
2023-03-04T17:49:17.938Z,40.94
2023-03-04T17:54:40.986Z,40.48
2023-03-04T18:00:04.191Z,40.73
2023-03-04T18:05:27.260Z,40.89
2023-03-04T18:10:51.212Z,41.15
2023-03-04T18:16:15.106Z,41.80
2023-03-04T18:21:39.031Z,42.48
2023-03-04T18:27:01.363Z,43.01
2023-03-04T18:32:24.271Z,43.84
2023-03-04T18:37:48.268Z,44.72
2023-03-04T18:43:13.005Z,45.38
2023-03-04T18:48:35.687Z,46.09
2023-03-04T18:53:59.812Z,46.88
2023-03-04T18:59:30.627Z,47.67
2023-03-04T19:04:53.988Z,48.44
2023-03-04T19:10:17.235Z,49.54
2023-03-04T19:15:39.463Z,50.76
2023-03-04T19:21:04.178Z,51.67
2023-03-04T19:26:28.512Z,52.28
2023-03-04T19:31:53.125Z,52.74
2023-03-04T19:37:16.856Z,53.28
2023-03-04T19:42:39.155Z,53.95
2023-03-04T19:48:04.279Z,54.86
2023-03-04T19:53:29.456Z,55.62
2023-03-04T19:58:52.170Z,56.34
2023-03-04T20:04:25.071Z,56.85
2023-03-04T20:09:48.524Z,57.46
2023-03-04T20:15:15.260Z,57.32
2023-03-04T20:20:38.972Z,57.28
2023-03-04T20:26:03.611Z,57.60
2023-03-04T20:31:38.393Z,58.17
2023-03-04T20:37:03.662Z,58.66
2023-03-04T20:42:28.500Z,59.32
2023-03-04T20:47:52.210Z,60.05
2023-03-04T20:53:17.918Z,59.93
2023-03-04T20:58:41.583Z,59.30
2023-03-04T21:04:07.146Z,58.96
2023-03-04T21:09:37.330Z,58.50
2023-03-04T21:15:02.000Z,57.96
2023-03-04T21:20:26.268Z,57.79
2023-03-04T21:25:49.114Z,57.78
2023-03-04T21:31:11.981Z,57.90
2023-03-04T21:36:35.387Z,58.29
2023-03-04T21:42:00.019Z,58.74
2023-03-04T21:47:25.765Z,59.01
2023-03-04T21:52:48.438Z,59.38
2023-03-04T21:58:13.093Z,59.97
2023-03-04T22:03:37.600Z,60.61
2023-03-04T22:09:02.405Z,61.25
2023-03-04T22:14:28.793Z,61.99
2023-03-04T22:19:55.503Z,62.73
2023-03-04T22:25:19.178Z,63.57
2023-03-04T22:30:44.479Z,64.34
2023-03-04T22:36:08.889Z,64.60
2023-03-04T22:41:34.602Z,64.76
2023-03-04T22:46:58.888Z,64.88
2023-03-04T22:52:24.055Z,64.90
2023-03-04T22:57:48.886Z,64.98
2023-03-04T23:03:13.582Z,65.08
2023-03-04T23:08:37.989Z,65.37
2023-03-04T23:14:05.591Z,65.58
2023-03-04T23:19:31.746Z,65.82
2023-03-04T23:24:58.611Z,65.92
2023-03-04T23:30:24.541Z,66.03
2023-03-04T23:35:49.291Z,66.22
2023-03-04T23:41:14.307Z,66.57
2023-03-04T23:46:39.631Z,67.03
2023-03-04T23:52:04.217Z,67.40
2023-03-04T23:57:28.302Z,67.83
